createdAt,value
2018-12-02T00:00:10.145Z,10.20
2018-12-02T00:05:14.054Z,10.30
2018-12-02T00:10:18.690Z,10.30
2018-12-02T00:15:27.486Z,10.30
2018-12-02T00:20:31.372Z,10.30
2018-12-02T00:25:35.903Z,10.30
2018-12-02T00:30:40.311Z,10.30
2018-12-02T00:35:44.221Z,10.30
2018-12-02T00:40:48.102Z,10.40
2018-12-02T00:45:52.006Z,10.40
2018-12-02T00:50:55.944Z,10.30
2018-12-02T00:56:00.712Z,10.30
2018-12-02T01:01:04.841Z,10.40
2018-12-02T01:06:08.893Z,10.40
2018-12-02T01:11:12.868Z,10.40
2018-12-02T01:16:16.777Z,10.40
2018-12-02T01:21:20.716Z,10.50
2018-12-02T01:26:24.608Z,10.50
2018-12-02T01:31:28.992Z,10.50
2018-12-02T01:36:33.118Z,10.60
2018-12-02T01:41:37.249Z,10.50
2018-12-02T01:51:59.488Z,10.60
2018-12-02T01:57:03.421Z,10.60
2018-12-02T02:02:07.309Z,10.60
2018-12-02T02:07:11.308Z,10.70
2018-12-02T02:12:15.226Z,10.60
2018-12-02T02:17:19.106Z,10.60
2018-12-02T02:22:23.169Z,10.50
2018-12-02T02:27:27.120Z,10.50
2018-12-02T02:32:31.011Z,10.50
2018-12-02T02:37:34.917Z,10.40
2018-12-02T02:42:38.797Z,10.40
2018-12-02T02:47:42.678Z,10.30
2018-12-02T02:52:48.993Z,10.30
2018-12-02T02:57:52.947Z,10.30
2018-12-02T03:02:56.849Z,10.30
2018-12-02T03:08:00.807Z,10.30
2018-12-02T03:13:05.844Z,10.20
2018-12-02T03:18:09.754Z,10.20
2018-12-02T03:23:13.776Z,10.20
2018-12-02T03:28:17.914Z,10.20
2018-12-02T03:33:21.825Z,10.20
2018-12-02T03:38:25.810Z,10.20
2018-12-02T03:43:29.692Z,10.20
2018-12-02T03:48:33.596Z,10.20
2018-12-02T03:53:37.509Z,10.20
2018-12-02T03:58:41.429Z,10.20
2018-12-02T04:03:45.319Z,10.20
2018-12-02T04:08:49.221Z,10.20
2018-12-02T04:13:53.305Z,10.20
2018-12-02T04:18:57.241Z,10.20
2018-12-02T04:24:01.162Z,10.20
2018-12-02T04:29:05.456Z,10.20
2018-12-02T04:34:09.354Z,10.30
2018-12-02T04:39:13.262Z,10.30
2018-12-02T04:44:17.180Z,10.30
2018-12-02T04:49:21.098Z,10.30
2018-12-02T04:54:25.120Z,10.30
2018-12-02T04:59:29.031Z,10.30
2018-12-02T05:04:32.971Z,10.30
2018-12-02T05:09:36.905Z,10.40
2018-12-02T05:14:40.845Z,10.40
2018-12-02T05:19:44.742Z,10.40
2018-12-02T05:24:48.674Z,10.50
2018-12-02T05:29:52.576Z,10.40
2018-12-02T05:34:56.499Z,10.40
2018-12-02T05:40:00.436Z,10.50
2018-12-02T05:45:04.451Z,10.50
2018-12-02T06:01:54.571Z,10.50
2018-12-02T06:06:58.712Z,10.50
2018-12-02T06:12:02.986Z,10.50
2018-12-02T06:17:07.238Z,10.50
2018-12-02T06:22:11.133Z,10.50
2018-12-02T06:27:15.125Z,10.50
2018-12-02T06:32:19.115Z,10.50
2018-12-02T06:37:23.007Z,10.50
2018-12-02T06:42:27.050Z,10.60
2018-12-02T06:47:30.953Z,10.60
2018-12-02T06:52:34.871Z,10.60
2018-12-02T06:57:47.819Z,10.60
2018-12-02T07:03:12.038Z,10.60
2018-12-02T07:08:15.959Z,10.60
2018-12-02T07:13:20.028Z,10.60
2018-12-02T07:18:27.144Z,10.60
2018-12-02T07:23:36.103Z,10.70
2018-12-02T07:28:40.047Z,10.70
2018-12-02T07:33:44.175Z,10.70
2018-12-02T07:38:53.484Z,10.80
2018-12-02T07:43:57.370Z,10.80
2018-12-02T07:49:01.290Z,10.90
2018-12-02T07:54:06.314Z,10.90
2018-12-02T07:59:11.002Z,10.90
2018-12-02T08:04:14.958Z,11.00
2018-12-02T08:09:18.873Z,11.00
2018-12-02T08:14:22.869Z,11.10
2018-12-02T08:19:26.815Z,11.00
2018-12-02T08:24:30.914Z,11.10
2018-12-02T08:29:34.809Z,11.10
2018-12-02T08:34:38.731Z,11.10
2018-12-02T08:39:42.677Z,11.20
2018-12-02T08:44:46.651Z,11.20
2018-12-02T08:49:50.669Z,11.30
2018-12-02T08:54:54.633Z,11.40
2018-12-02T08:59:58.579Z,11.40
2018-12-02T09:05:02.585Z,11.50
2018-12-02T09:10:11.527Z,11.50
2018-12-02T09:15:15.461Z,11.60
2018-12-02T09:20:21.548Z,11.60
2018-12-02T09:25:25.562Z,11.70
2018-12-02T09:30:30.746Z,11.70
2018-12-02T09:35:34.658Z,11.70
2018-12-02T09:40:38.550Z,11.80
2018-12-02T09:45:42.779Z,11.90
2018-12-02T09:50:46.696Z,11.90
2018-12-02T09:55:50.600Z,11.90
2018-12-02T10:00:58.742Z,12.00
2018-12-02T10:06:02.780Z,12.00
2018-12-02T10:11:07.018Z,12.10
2018-12-02T10:16:15.629Z,12.20
2018-12-02T10:21:15.034Z,12.20
2018-12-02T10:26:19.267Z,12.30
2018-12-02T10:31:23.177Z,12.30
2018-12-02T10:36:27.148Z,12.30
2018-12-02T10:41:31.105Z,12.40
2018-12-02T10:46:35.146Z,12.40
2018-12-02T10:51:39.116Z,12.50
2018-12-02T10:56:43.144Z,12.50
2018-12-02T11:01:47.176Z,12.50
2018-12-02T11:06:51.212Z,12.50
2018-12-02T11:11:55.254Z,12.60
2018-12-02T11:16:59.260Z,12.80
2018-12-02T11:22:03.232Z,12.80
2018-12-02T11:27:07.129Z,12.90
2018-12-02T11:32:11.060Z,12.90
2018-12-02T11:37:14.974Z,13.00
2018-12-02T11:42:18.886Z,13.00
2018-12-02T11:47:22.889Z,13.10
2018-12-02T11:52:26.807Z,13.10
2018-12-02T11:57:30.702Z,13.10
2018-12-02T12:02:34.936Z,13.10
2018-12-02T12:07:39.669Z,13.10
2018-12-02T12:12:43.741Z,13.10
2018-12-02T12:17:47.730Z,13.30
2018-12-02T12:22:51.723Z,13.30
2018-12-02T12:27:56.612Z,13.40
2018-12-02T12:33:00.607Z,13.40
2018-12-02T12:38:04.541Z,13.40
2018-12-02T12:43:15.338Z,13.40
2018-12-02T12:48:19.229Z,13.40
2018-12-02T12:53:23.174Z,13.30
2018-12-02T12:58:27.178Z,13.40
2018-12-02T13:03:31.242Z,13.40
2018-12-02T13:08:35.219Z,13.40
2018-12-02T13:13:39.256Z,13.40
2018-12-02T13:18:43.342Z,13.40
2018-12-02T13:23:47.349Z,13.40
2018-12-02T13:28:51.297Z,13.40
2018-12-02T13:34:12.315Z,14.30
2018-12-02T13:44:59.607Z,13.40
2018-12-02T13:50:03.929Z,13.50
2018-12-02T13:55:09.884Z,13.30
2018-12-02T14:00:15.062Z,13.40
2018-12-02T14:05:19.113Z,13.40
2018-12-02T14:10:23.357Z,13.40
2018-12-02T14:15:30.322Z,13.30
2018-12-02T14:20:34.836Z,13.40
2018-12-02T14:25:38.806Z,13.30
2018-12-02T14:30:42.698Z,13.30
2018-12-02T14:35:46.628Z,13.30
2018-12-02T14:40:50.553Z,13.30
2018-12-02T14:45:54.509Z,13.30
2018-12-02T14:50:58.441Z,13.20
2018-12-02T14:56:02.332Z,13.30
2018-12-02T15:01:06.342Z,13.30
2018-12-02T15:06:10.260Z,13.30
2018-12-02T15:11:14.144Z,13.30
2018-12-02T15:16:18.183Z,13.30
2018-12-02T15:21:22.834Z,13.40
2018-12-02T15:26:26.809Z,13.30
2018-12-02T15:31:30.814Z,13.40
2018-12-02T15:36:35.412Z,13.30
2018-12-02T15:41:39.412Z,13.30
2018-12-02T15:46:43.407Z,13.30
2018-12-02T15:51:47.411Z,13.30
2018-12-02T15:56:51.431Z,13.30
2018-12-02T16:01:55.457Z,13.30
2018-12-02T16:07:00.041Z,13.30
2018-12-02T16:12:04.013Z,13.30
2018-12-02T16:17:08.209Z,13.30
2018-12-02T16:22:13.111Z,13.30
2018-12-02T16:27:17.124Z,13.30
2018-12-02T16:32:21.154Z,13.30
2018-12-02T16:37:25.238Z,13.30
2018-12-02T16:42:30.209Z,13.30
2018-12-02T16:47:34.168Z,13.30
2018-12-02T16:52:38.181Z,13.30
2018-12-02T16:57:42.654Z,13.30
2018-12-02T17:02:46.863Z,13.40
2018-12-02T17:07:51.279Z,13.50
2018-12-02T17:12:55.297Z,13.40
2018-12-02T17:17:59.331Z,13.40
2018-12-02T17:23:04.843Z,13.40
2018-12-02T17:28:08.944Z,13.40
2018-12-02T17:33:12.888Z,13.40
2018-12-02T17:38:16.932Z,13.40
2018-12-02T17:43:20.844Z,13.30
2018-12-02T17:48:25.400Z,13.30
2018-12-02T17:53:29.775Z,13.30
2018-12-02T17:58:33.702Z,13.30
2018-12-02T18:03:37.995Z,13.30
2018-12-02T18:08:42.190Z,13.30
2018-12-02T18:13:46.101Z,13.30
2018-12-02T18:18:50.011Z,13.30
2018-12-02T18:23:53.973Z,13.30
2018-12-02T18:28:58.068Z,13.30
2018-12-02T18:34:01.994Z,13.30
2018-12-02T18:39:12.830Z,13.30
2018-12-02T18:44:18.324Z,13.30
2018-12-02T18:49:22.352Z,13.30
2018-12-02T18:54:26.309Z,13.20
2018-12-02T18:59:30.740Z,13.30
2018-12-02T19:04:36.032Z,13.30
2018-12-02T19:09:41.328Z,13.20
2018-12-02T19:14:47.436Z,13.20
2018-12-02T19:19:51.433Z,13.20
2018-12-02T19:24:56.593Z,13.20
2018-12-02T19:30:00.607Z,13.30
2018-12-02T19:35:10.640Z,13.30
2018-12-02T19:40:16.315Z,13.30
2018-12-02T19:45:20.918Z,13.30
2018-12-02T19:50:27.425Z,13.30
2018-12-02T19:55:33.747Z,13.30
2018-12-02T20:00:41.768Z,13.20
2018-12-02T20:05:49.719Z,13.30
2018-12-02T20:10:57.212Z,13.30
2018-12-02T20:16:16.234Z,13.30
2018-12-02T20:21:23.813Z,13.30
2018-12-02T20:26:28.487Z,13.30
2018-12-02T20:31:34.323Z,13.30
2018-12-02T20:36:39.769Z,13.40
2018-12-02T20:41:43.859Z,13.30
2018-12-02T20:46:48.461Z,13.30
2018-12-02T20:52:06.315Z,13.40
2018-12-02T20:57:11.510Z,13.40
2018-12-02T21:02:15.874Z,13.30
2018-12-02T21:07:20.845Z,13.30
2018-12-02T21:12:25.036Z,13.40
2018-12-02T21:17:30.588Z,13.30
2018-12-02T21:22:34.571Z,13.30
2018-12-02T21:27:38.958Z,13.30
2018-12-02T21:32:43.316Z,13.20
2018-12-02T21:37:48.406Z,13.20
2018-12-02T21:42:53.530Z,13.30
2018-12-02T21:47:58.174Z,13.20
2018-12-02T21:53:03.765Z,13.20
2018-12-02T21:58:07.825Z,13.20
2018-12-02T22:03:12.202Z,13.30
2018-12-02T22:08:16.162Z,13.20
2018-12-02T22:13:20.213Z,13.20
2018-12-02T22:18:24.140Z,13.20
2018-12-02T22:23:28.122Z,13.20
2018-12-02T22:28:32.091Z,13.20
2018-12-02T22:33:36.000Z,13.20
2018-12-02T22:38:40.165Z,13.20
2018-12-02T22:43:44.084Z,13.10
2018-12-02T22:48:47.995Z,13.10
2018-12-02T22:53:51.911Z,13.10
2018-12-02T22:58:55.832Z,13.20
2018-12-02T23:03:59.776Z,13.10
2018-12-02T23:09:03.774Z,13.30
2018-12-02T23:14:07.640Z,13.20
2018-12-02T23:19:11.611Z,13.40
2018-12-02T23:24:15.505Z,13.50
2018-12-02T23:29:19.499Z,13.20
2018-12-02T23:34:23.416Z,13.20
2018-12-02T23:39:27.442Z,13.10
2018-12-02T23:44:31.379Z,13.10
2018-12-02T23:49:35.276Z,13.00
2018-12-02T23:54:39.161Z,13.10
2018-12-02T23:59:43.048Z,13.10
